createdAt,value
2022-10-22T00:09:09.222Z,95895.72
2022-10-22T00:19:13.314Z,95895.34
2022-10-22T00:29:18.601Z,95892.38
2022-10-22T00:39:23.195Z,95877.59
2022-10-22T00:49:25.653Z,95885.75
2022-10-22T00:59:29.536Z,95894.91
2022-10-22T01:09:37.557Z,95908.88
2022-10-22T01:19:46.860Z,95897.72
2022-10-22T01:29:52.594Z,95908.75
2022-10-22T01:39:55.272Z,95863.06
2022-10-22T01:50:19.319Z,95848.97
2022-10-22T02:00:22.170Z,95829.94
2022-10-22T02:10:26.177Z,95859.56
2022-10-22T02:20:29.221Z,95893.53
2022-10-22T02:30:33.888Z,95893.00
2022-10-22T02:40:36.482Z,95899.94
2022-10-22T02:50:40.229Z,95916.28
2022-10-22T03:00:42.670Z,95928.13
2022-10-22T03:10:46.518Z,95892.63
2022-10-22T03:20:48.937Z,95884.16
2022-10-22T03:30:52.692Z,95864.84
2022-10-22T03:40:55.413Z,95857.50
2022-10-22T03:50:59.334Z,95876.13
2022-10-22T04:01:05.580Z,95878.91
2022-10-22T04:11:09.534Z,95887.78
2022-10-22T04:21:13.122Z,95895.38
2022-10-22T04:31:17.775Z,95905.31
2022-10-22T04:41:21.067Z,95900.53
2022-10-22T04:51:26.320Z,95904.47
2022-10-22T05:01:29.886Z,95910.13
2022-10-22T05:11:34.760Z,95908.00
2022-10-22T05:21:38.480Z,95930.56
2022-10-22T05:31:42.198Z,95920.59
2022-10-22T05:41:44.629Z,95947.84
2022-10-22T05:51:48.399Z,95949.66
2022-10-22T06:01:50.964Z,95975.47
2022-10-22T06:11:55.728Z,95975.28
2022-10-22T06:21:58.120Z,96002.44
2022-10-22T06:32:01.824Z,96020.19
2022-10-22T06:42:04.239Z,96033.91
2022-10-22T06:52:08.008Z,96042.84
2022-10-22T07:02:10.537Z,96062.03
2022-10-22T07:12:14.499Z,96076.63
2022-10-22T07:22:17.024Z,96079.34
2022-10-22T07:32:23.825Z,96080.19
2022-10-22T07:42:26.480Z,96085.94
2022-10-22T07:52:30.292Z,96113.94
2022-10-22T08:02:32.704Z,96131.22
2022-10-22T08:12:36.530Z,96120.22
2022-10-22T08:22:38.944Z,96117.31
2022-10-22T08:32:42.689Z,96116.06
2022-10-22T08:43:06.464Z,96127.47
2022-10-22T08:53:15.779Z,96133.16
2022-10-22T09:03:28.316Z,96142.69
2022-10-22T09:13:32.147Z,96153.78
2022-10-22T09:23:39.109Z,96163.03
2022-10-22T09:33:44.450Z,96166.31
2022-10-22T09:43:47.660Z,96173.63
2022-10-22T09:53:57.375Z,96191.97
2022-10-22T10:04:09.187Z,96196.53
2022-10-22T10:14:16.108Z,96204.38
2022-10-22T10:24:24.734Z,96213.47
2022-10-22T10:34:36.812Z,96224.47
2022-10-22T10:44:51.672Z,96219.66
2022-10-22T10:55:05.048Z,96220.16
2022-10-22T11:05:22.207Z,96231.25
2022-10-22T11:15:28.440Z,96233.41
2022-10-22T11:25:32.778Z,96218.84
2022-10-22T11:35:39.003Z,96216.25
2022-10-22T11:45:42.156Z,96204.56
2022-10-22T11:55:48.251Z,96203.41
2022-10-22T12:06:03.426Z,96200.72
2022-10-22T12:16:10.480Z,96194.31
2022-10-22T12:26:25.448Z,96192.38
2022-10-22T12:36:29.821Z,96175.56
2022-10-22T12:46:33.727Z,96185.53
2022-10-22T12:56:38.605Z,96182.16
2022-10-22T13:06:44.947Z,96165.94
2022-10-22T13:17:02.300Z,96168.00
2022-10-22T13:27:09.630Z,96151.94
2022-10-22T13:37:12.061Z,96156.03
2022-10-22T13:47:22.041Z,96164.34
2022-10-22T13:57:24.517Z,96155.44
2022-10-22T14:07:28.500Z,96148.59
2022-10-22T14:17:31.262Z,96141.97
2022-10-22T14:27:35.092Z,96145.59
2022-10-22T14:37:37.484Z,96154.38
2022-10-22T14:47:41.272Z,96157.50
2022-10-22T14:57:44.290Z,96165.19
2022-10-22T15:07:48.354Z,96159.38
2022-10-22T15:17:51.088Z,96163.50
2022-10-22T15:27:58.514Z,96167.84
2022-10-22T15:38:10.122Z,96160.97
2022-10-22T15:48:15.540Z,96158.06
2022-10-22T15:58:18.159Z,96175.09
2022-10-22T16:08:22.079Z,96177.91
2022-10-22T16:18:24.668Z,96181.56
2022-10-22T16:28:28.617Z,96174.50
2022-10-22T16:38:31.331Z,96186.69
2022-10-22T16:48:35.170Z,96185.88
2022-10-22T16:58:37.762Z,96201.34
2022-10-22T17:08:42.033Z,96192.66
2022-10-22T17:28:54.877Z,96211.91
2022-10-22T17:38:58.397Z,96206.25
2022-10-22T17:49:03.432Z,96220.31
2022-10-22T17:59:05.825Z,96226.75
2022-10-22T18:09:11.561Z,96225.63
2022-10-22T18:19:16.547Z,96217.00
2022-10-22T18:29:20.732Z,96205.94
2022-10-22T18:39:23.143Z,96212.16
2022-10-22T18:49:26.905Z,96208.38
2022-10-22T18:59:29.609Z,96213.50
2022-10-22T19:09:33.836Z,96212.13
2022-10-22T19:19:36.269Z,96213.19
2022-10-22T19:29:40.080Z,96203.47
2022-10-22T19:39:42.574Z,96211.50
2022-10-22T19:49:46.389Z,96206.63
2022-10-22T19:59:48.938Z,96194.75
2022-10-22T20:09:52.677Z,96213.16
2022-10-22T20:19:56.681Z,96216.19
2022-10-22T20:30:00.436Z,96212.09
2022-10-22T20:40:03.106Z,96210.13
2022-10-22T20:50:07.361Z,96207.44
2022-10-22T21:00:10.295Z,96204.66
2022-10-22T21:10:14.081Z,96210.19
2022-10-22T21:20:17.925Z,96217.63
2022-10-22T21:30:23.559Z,96225.41
2022-10-22T21:40:27.501Z,96219.59
2022-10-22T21:50:31.551Z,96216.44
2022-10-22T22:00:34.090Z,96205.88
2022-10-22T22:10:38.002Z,96197.84
2022-10-22T22:20:40.443Z,96203.41
2022-10-22T22:30:44.242Z,96191.63
2022-10-22T22:40:46.679Z,96194.19
2022-10-22T22:50:50.445Z,96193.59
2022-10-22T23:00:52.956Z,96173.16
2022-10-22T23:11:01.781Z,96170.34
2022-10-22T23:21:05.181Z,96151.97
2022-10-22T23:31:11.538Z,96156.06
2022-10-22T23:41:13.988Z,96148.88
2022-10-22T23:51:18.252Z,96159.25
